createdAt,value
2017-08-11T00:01:28.040Z,13.30
2017-08-11T00:03:56.368Z,13.94
2017-08-11T00:06:24.718Z,13.76
2017-08-11T00:08:53.031Z,14.74
2017-08-11T00:11:21.351Z,14.54
2017-08-11T00:13:49.697Z,13.88
2017-08-11T00:16:18.073Z,14.92
2017-08-11T00:18:46.407Z,15.10
2017-08-11T00:21:14.718Z,14.86
2017-08-11T00:23:43.055Z,14.80
2017-08-11T00:26:11.366Z,14.16
2017-08-11T00:28:39.712Z,15.90
2017-08-11T00:31:08.031Z,15.94
2017-08-11T00:33:36.343Z,15.60
2017-08-11T00:36:04.684Z,13.48
2017-08-11T00:38:32.996Z,14.60
2017-08-11T00:41:01.340Z,17.24
2017-08-11T00:43:29.704Z,14.78
2017-08-11T00:45:58.038Z,16.44
2017-08-11T00:48:26.363Z,15.32
2017-08-11T00:50:53.949Z,18.00
2017-08-11T00:53:22.263Z,19.90
2017-08-11T00:55:50.583Z,18.30
2017-08-11T00:58:18.918Z,20.24
2017-08-11T01:00:46.467Z,22.80
2017-08-11T01:03:14.807Z,22.68
2017-08-11T01:05:43.123Z,24.96
2017-08-11T01:08:11.464Z,21.94
2017-08-11T01:10:39.784Z,23.84
2017-08-11T01:13:08.131Z,24.08
2017-08-11T01:15:36.449Z,24.54
2017-08-11T01:18:04.765Z,28.38
2017-08-11T01:20:33.102Z,26.04
2017-08-11T01:23:01.431Z,25.28
2017-08-11T01:25:29.783Z,30.82
2017-08-11T01:27:58.106Z,26.60
2017-08-11T01:30:26.446Z,32.54
2017-08-11T01:32:54.770Z,30.22
2017-08-11T01:35:23.116Z,29.72
2017-08-11T01:37:51.427Z,27.04
2017-08-11T01:40:19.743Z,30.90
2017-08-11T01:42:48.082Z,31.44
2017-08-11T01:45:16.391Z,31.84
2017-08-11T01:47:44.724Z,33.64
2017-08-11T01:50:13.049Z,32.20
2017-08-11T01:52:41.391Z,33.30
2017-08-11T01:55:09.710Z,34.60
2017-08-11T01:57:38.051Z,34.78
2017-08-11T02:00:06.371Z,37.28
2017-08-11T02:02:34.716Z,41.32
2017-08-11T02:05:03.031Z,36.50
2017-08-11T02:07:31.351Z,34.76
2017-08-11T02:09:59.690Z,38.24
2017-08-11T02:12:28.007Z,37.10
2017-08-11T02:14:56.356Z,36.84
2017-08-11T02:17:24.670Z,36.84
2017-08-11T02:19:52.994Z,42.84
2017-08-11T02:22:21.314Z,37.40
2017-08-11T02:24:49.674Z,39.84
2017-08-11T02:27:17.991Z,36.00
2017-08-11T02:29:46.304Z,38.08
2017-08-11T02:32:14.639Z,44.96
2017-08-11T02:34:42.957Z,46.76
2017-08-11T02:37:11.300Z,51.60
2017-08-11T02:39:39.611Z,39.98
2017-08-11T02:42:07.951Z,47.50
2017-08-11T02:44:36.272Z,39.42
2017-08-11T02:47:04.611Z,41.48
2017-08-11T02:49:32.924Z,40.06
2017-08-11T02:52:01.241Z,39.84
2017-08-11T02:54:29.595Z,38.34
2017-08-11T02:56:57.911Z,45.44
2017-08-11T02:59:26.247Z,45.06
2017-08-11T03:01:54.565Z,44.46
2017-08-11T03:04:22.899Z,46.60
2017-08-11T03:06:51.211Z,45.44
2017-08-11T03:09:19.574Z,47.56
2017-08-11T03:11:47.908Z,47.62
2017-08-11T03:14:16.230Z,50.20
2017-08-11T03:16:44.580Z,48.62
2017-08-11T03:19:12.894Z,57.14
2017-08-11T03:21:41.227Z,54.36
2017-08-11T03:24:09.543Z,49.66
2017-08-11T03:26:37.894Z,51.66
2017-08-11T03:29:06.216Z,51.06
2017-08-11T03:31:34.531Z,53.26
2017-08-11T03:34:02.856Z,48.22
2017-08-11T03:36:31.171Z,46.56
2017-08-11T03:38:59.508Z,51.28
2017-08-11T03:41:27.872Z,53.96
2017-08-11T03:43:56.211Z,50.12
2017-08-11T03:46:24.719Z,43.88
2017-08-11T03:48:53.060Z,50.50
2017-08-11T03:51:21.376Z,45.92
2017-08-11T03:53:49.720Z,44.60
2017-08-11T03:56:18.032Z,46.38
2017-08-11T03:58:46.355Z,46.06
2017-08-11T04:01:14.700Z,44.48
2017-08-11T04:03:43.015Z,45.26
2017-08-11T04:06:11.352Z,43.24
2017-08-11T04:08:39.667Z,43.50
2017-08-11T04:11:08.021Z,46.64
2017-08-11T04:13:36.348Z,43.78
2017-08-11T04:16:04.665Z,42.38
2017-08-11T04:18:32.999Z,41.44
2017-08-11T04:21:01.310Z,42.26
2017-08-11T04:23:29.652Z,45.32
2017-08-11T04:25:57.968Z,45.18
2017-08-11T04:28:26.332Z,45.94
2017-08-11T04:30:54.649Z,39.22
2017-08-11T04:33:22.963Z,40.18
2017-08-11T04:35:51.296Z,38.00
2017-08-11T04:38:19.619Z,45.36
2017-08-11T04:40:47.966Z,42.36
2017-08-11T04:43:16.285Z,35.68
2017-08-11T04:45:44.624Z,41.42
2017-08-11T04:48:12.944Z,31.88
2017-08-11T04:50:41.320Z,35.58
2017-08-11T04:53:09.636Z,37.40
2017-08-11T04:55:37.951Z,33.70
2017-08-11T04:58:06.291Z,32.26
2017-08-11T05:00:34.611Z,32.70
2017-08-11T05:03:02.951Z,34.70
2017-08-11T05:05:31.271Z,34.02
2017-08-11T05:07:59.608Z,36.14
2017-08-11T05:10:27.929Z,32.26
2017-08-11T05:12:55.515Z,33.78
2017-08-11T05:15:23.830Z,28.22
2017-08-11T05:17:52.151Z,30.62
2017-08-11T05:20:20.497Z,31.52
2017-08-11T05:25:16.137Z,31.10
2017-08-11T05:27:44.451Z,32.46
2017-08-11T05:30:12.796Z,33.78
2017-08-11T05:32:41.125Z,31.32
2017-08-11T05:35:09.468Z,27.32
2017-08-11T05:37:37.792Z,26.24
2017-08-11T05:40:06.145Z,19.78
2017-08-11T05:42:34.459Z,20.34
2017-08-11T05:45:02.774Z,25.32
2017-08-11T05:47:31.109Z,18.64
2017-08-11T05:49:59.429Z,19.62
2017-08-11T05:52:27.768Z,19.60
2017-08-11T05:54:56.084Z,17.94
2017-08-11T05:57:24.415Z,17.08
2017-08-11T05:59:52.736Z,16.98
2017-08-11T06:02:21.090Z,17.62
2017-08-11T06:04:49.413Z,17.86
2017-08-11T06:07:17.729Z,16.70
2017-08-11T06:09:46.072Z,20.30
2017-08-11T06:12:14.396Z,19.70
2017-08-11T06:14:42.741Z,20.38
2017-08-11T06:17:11.054Z,18.04
2017-08-11T06:19:39.394Z,19.88
2017-08-11T06:22:06.952Z,17.64
2017-08-11T06:24:35.299Z,23.64
2017-08-11T06:27:03.624Z,20.54
2017-08-11T06:29:31.955Z,24.28
2017-08-11T06:32:00.284Z,25.48
2017-08-11T06:34:28.623Z,20.64
2017-08-11T06:36:56.941Z,23.26
2017-08-11T06:39:25.288Z,26.48
2017-08-11T06:41:53.617Z,21.54
2017-08-11T06:44:21.931Z,23.82
2017-08-11T06:46:50.272Z,31.72
2017-08-11T06:49:18.588Z,34.16
2017-08-11T06:51:46.943Z,37.22
2017-08-11T06:54:15.257Z,32.54
2017-08-11T06:56:43.607Z,27.74
2017-08-11T06:59:11.939Z,27.72
2017-08-11T07:01:40.280Z,28.10
2017-08-11T07:04:08.591Z,24.90
2017-08-11T07:06:36.932Z,30.46
2017-08-11T07:09:05.237Z,23.44
2017-08-11T07:11:33.595Z,29.26
2017-08-11T07:14:01.917Z,26.00
2017-08-11T07:16:30.239Z,26.80
2017-08-11T07:18:58.602Z,28.34
2017-08-11T07:21:26.153Z,24.84
2017-08-11T07:23:54.495Z,26.06
2017-08-11T07:26:22.815Z,24.60
2017-08-11T07:28:51.160Z,24.80
2017-08-11T07:31:19.475Z,26.60
2017-08-11T07:33:47.810Z,25.76
2017-08-11T07:36:16.130Z,21.60
2017-08-11T07:38:44.663Z,24.76
2017-08-11T07:41:12.979Z,26.06
2017-08-11T07:43:41.315Z,22.50
2017-08-11T07:46:09.643Z,23.28
2017-08-11T07:48:37.975Z,23.28
2017-08-11T07:51:06.307Z,23.64
2017-08-11T07:53:34.636Z,24.52
2017-08-11T07:56:02.975Z,19.08
2017-08-11T07:58:31.311Z,17.48
2017-08-11T08:00:59.655Z,19.14
2017-08-11T08:03:28.136Z,18.40
2017-08-11T08:05:56.476Z,20.06
2017-08-11T08:08:24.791Z,19.00
2017-08-11T08:10:53.135Z,19.08
2017-08-11T08:13:21.456Z,21.96
2017-08-11T08:15:49.819Z,17.44
2017-08-11T08:18:18.133Z,15.92
2017-08-11T08:20:46.456Z,19.58
2017-08-11T08:23:14.030Z,18.98
2017-08-11T08:25:42.347Z,17.92
2017-08-11T08:28:10.687Z,18.68
2017-08-11T08:30:39.015Z,18.62
2017-08-11T08:33:07.351Z,17.88
2017-08-11T08:35:35.660Z,20.18
2017-08-11T08:38:04.008Z,17.98
2017-08-11T08:40:32.319Z,17.74
2017-08-11T08:43:00.661Z,21.36
2017-08-11T08:45:28.997Z,18.32
2017-08-11T08:47:57.352Z,20.70
2017-08-11T08:50:25.704Z,20.90
2017-08-11T08:52:54.019Z,17.98
2017-08-11T08:55:22.363Z,16.40
2017-08-11T08:57:50.684Z,17.00
2017-08-11T09:00:19.044Z,18.24
2017-08-11T09:02:47.356Z,18.16
2017-08-11T09:05:15.704Z,18.58
2017-08-11T09:07:44.027Z,17.18
2017-08-11T09:10:12.372Z,21.64
2017-08-11T09:12:40.690Z,21.36
2017-08-11T09:15:09.015Z,19.10
2017-08-11T09:17:37.356Z,17.80
2017-08-11T09:20:05.672Z,19.98
2017-08-11T09:22:34.012Z,17.50
2017-08-11T09:25:14.132Z,15.94
2017-08-11T09:27:53.061Z,22.34
2017-08-11T09:30:33.296Z,16.28
2017-08-11T09:33:13.385Z,13.68
2017-08-11T09:36:03.280Z,15.90
2017-08-11T09:38:31.615Z,16.66
2017-08-11T09:40:59.932Z,13.50
2017-08-11T09:43:28.269Z,15.40
2017-08-11T09:45:56.587Z,16.18
2017-08-11T09:48:24.923Z,14.90
2017-08-11T09:50:53.244Z,15.22
2017-08-11T09:53:21.588Z,17.12
2017-08-11T09:55:49.915Z,15.82
2017-08-11T09:58:18.282Z,14.72
2017-08-11T10:00:46.623Z,12.96
2017-08-11T10:03:14.936Z,14.20
2017-08-11T10:05:43.299Z,14.00
2017-08-11T10:08:11.615Z,17.10
2017-08-11T10:10:39.947Z,16.98
2017-08-11T10:13:08.272Z,15.04
2017-08-11T10:15:36.610Z,13.78
2017-08-11T10:18:04.928Z,16.46
2017-08-11T10:20:33.268Z,16.60
2017-08-11T10:23:01.583Z,14.38
2017-08-11T10:25:29.905Z,15.78
2017-08-11T10:27:58.243Z,16.02
2017-08-11T10:30:26.567Z,13.20
2017-08-11T10:32:54.904Z,15.16
2017-08-11T10:35:23.223Z,14.68
2017-08-11T10:37:51.583Z,14.74
2017-08-11T10:40:19.906Z,15.10
2017-08-11T10:42:48.252Z,14.80
2017-08-11T10:45:16.575Z,13.34
2017-08-11T10:47:44.928Z,14.76
2017-08-11T10:50:13.247Z,16.06
2017-08-11T10:52:41.556Z,15.46
2017-08-11T10:55:09.887Z,18.46
2017-08-11T10:57:38.207Z,16.22
2017-08-11T11:00:06.545Z,16.70
2017-08-11T11:02:34.860Z,19.62
2017-08-11T11:05:03.191Z,19.68
2017-08-11T11:07:31.498Z,16.60
2017-08-11T11:09:59.837Z,17.90
2017-08-11T11:12:28.147Z,19.16
2017-08-11T11:14:56.503Z,17.42
2017-08-11T11:17:24.816Z,14.14
2017-08-11T11:19:53.170Z,15.32
2017-08-11T11:22:21.495Z,17.30
2017-08-11T11:24:49.809Z,13.62
2017-08-11T11:27:18.149Z,16.08
2017-08-11T11:29:46.469Z,16.24
2017-08-11T11:32:14.810Z,21.62
2017-08-11T11:34:43.118Z,11.70
2017-08-11T11:37:11.455Z,12.64
2017-08-11T11:39:39.767Z,12.92
2017-08-11T11:42:08.096Z,12.88
2017-08-11T11:44:36.408Z,13.26
2017-08-11T11:47:04.735Z,13.36
2017-08-11T11:49:33.041Z,13.60
2017-08-11T11:52:01.376Z,14.78
2017-08-11T11:54:29.689Z,14.94
2017-08-11T11:56:58.002Z,15.30
2017-08-11T11:59:26.349Z,15.06
2017-08-11T12:01:54.668Z,11.82
2017-08-11T12:04:23.004Z,13.00
2017-08-11T12:06:51.320Z,13.14
2017-08-11T12:09:19.651Z,12.46
2017-08-11T12:11:47.959Z,18.66
2017-08-11T12:14:16.332Z,14.24
2017-08-11T12:16:44.648Z,13.86
2017-08-11T12:19:12.986Z,13.70
2017-08-11T12:21:40.532Z,11.90
2017-08-11T12:24:08.924Z,11.46
2017-08-11T12:26:37.255Z,12.12
2017-08-11T12:29:05.579Z,15.42
2017-08-11T12:31:33.915Z,13.12
2017-08-11T12:34:02.236Z,14.02
2017-08-11T12:36:30.571Z,14.48
2017-08-11T12:38:58.891Z,11.26
2017-08-11T12:41:27.224Z,11.54
2017-08-11T12:43:55.551Z,10.58
2017-08-11T12:46:23.879Z,9.96
2017-08-11T12:48:52.203Z,14.70
2017-08-11T12:51:20.559Z,10.72
2017-08-11T12:53:48.872Z,11.24
2017-08-11T12:56:17.186Z,15.40
2017-08-11T12:58:45.526Z,14.38
2017-08-11T13:01:13.849Z,13.90
2017-08-11T13:03:42.184Z,16.06
2017-08-11T13:06:10.515Z,12.66
2017-08-11T13:08:38.851Z,11.30
2017-08-11T13:11:07.179Z,14.32
2017-08-11T13:13:35.516Z,14.30
2017-08-11T13:16:03.834Z,13.02
2017-08-11T13:18:32.173Z,14.40
2017-08-11T13:21:00.482Z,15.00
2017-08-11T13:23:28.801Z,12.00
2017-08-11T13:25:57.152Z,13.78
2017-08-11T13:28:25.473Z,11.24
2017-08-11T13:30:53.816Z,13.46
2017-08-11T13:33:22.131Z,14.58
2017-08-11T13:35:50.471Z,13.16
2017-08-11T13:38:18.787Z,13.70
2017-08-11T13:40:47.138Z,13.58
2017-08-11T13:43:15.458Z,14.62
2017-08-11T13:45:43.793Z,13.72
2017-08-11T13:48:12.100Z,12.96
2017-08-11T13:50:40.431Z,14.58
2017-08-11T13:53:08.743Z,11.64
2017-08-11T13:55:37.055Z,15.72
2017-08-11T13:58:05.390Z,12.34
2017-08-11T14:00:33.696Z,11.92
2017-08-11T14:03:02.031Z,14.74
2017-08-11T14:05:30.343Z,14.66
2017-08-11T14:07:58.676Z,13.94
2017-08-11T14:10:27.001Z,11.04
2017-08-11T14:12:55.336Z,13.76
2017-08-11T14:15:23.646Z,13.02
2017-08-11T14:17:51.973Z,10.18
2017-08-11T14:20:20.291Z,15.00
2017-08-11T14:22:48.640Z,12.16
2017-08-11T14:25:16.959Z,13.80
2017-08-11T14:27:45.277Z,18.00
2017-08-11T14:30:13.630Z,14.00
2017-08-11T14:32:41.939Z,13.14
2017-08-11T14:35:10.289Z,20.92
2017-08-11T14:37:38.645Z,14.10
2017-08-11T14:40:06.988Z,11.94
2017-08-11T14:42:35.309Z,14.70
2017-08-11T14:45:02.887Z,17.16
2017-08-11T14:47:31.210Z,15.14
2017-08-11T14:49:59.547Z,17.16
2017-08-11T14:52:27.876Z,14.30
2017-08-11T14:54:56.237Z,18.28
2017-08-11T14:57:24.552Z,18.40
2017-08-11T14:59:52.868Z,17.80
2017-08-11T15:02:21.204Z,15.94
2017-08-11T15:04:49.515Z,18.06
2017-08-11T15:07:17.853Z,21.28
2017-08-11T15:09:46.176Z,21.04
2017-08-11T15:12:14.516Z,15.30
2017-08-11T15:14:42.089Z,17.98
2017-08-11T15:17:10.434Z,17.78
2017-08-11T15:19:38.774Z,25.96
2017-08-11T15:22:07.108Z,19.04
2017-08-11T15:24:35.431Z,21.20
2017-08-11T15:27:03.763Z,21.96
2017-08-11T15:29:32.075Z,21.14
2017-08-11T15:32:00.429Z,19.34
2017-08-11T15:34:27.975Z,18.34
2017-08-11T15:36:56.298Z,18.36
2017-08-11T15:39:24.636Z,38.24
2017-08-11T15:41:52.951Z,21.32
2017-08-11T15:44:21.305Z,22.08
2017-08-11T15:46:49.623Z,19.80
2017-08-11T15:49:17.962Z,20.00
2017-08-11T15:51:46.287Z,21.98
2017-08-11T15:54:14.629Z,18.78
2017-08-11T15:56:42.957Z,24.76
2017-08-11T15:59:11.297Z,20.50
2017-08-11T16:01:39.641Z,22.84
2017-08-11T16:04:07.978Z,20.44
2017-08-11T16:06:36.301Z,20.46
2017-08-11T16:09:04.616Z,25.86
2017-08-11T16:11:32.951Z,21.04
2017-08-11T16:14:01.264Z,26.34
2017-08-11T16:16:29.603Z,24.96
2017-08-11T16:18:57.919Z,21.38
2017-08-11T16:21:26.288Z,22.20
2017-08-11T16:23:53.844Z,22.00
2017-08-11T16:26:22.181Z,23.36
2017-08-11T16:28:50.500Z,19.50
2017-08-11T16:31:18.828Z,20.04
2017-08-11T16:33:47.159Z,23.76
2017-08-11T16:36:15.495Z,21.58
2017-08-11T16:38:43.819Z,19.88
2017-08-11T16:41:12.134Z,20.92
2017-08-11T16:43:40.484Z,21.26
2017-08-11T16:46:08.794Z,22.42
2017-08-11T16:48:37.136Z,21.48
2017-08-11T16:51:05.460Z,23.76
2017-08-11T16:53:33.791Z,21.90
2017-08-11T16:56:02.116Z,21.76
2017-08-11T16:58:30.451Z,21.26
2017-08-11T17:00:58.768Z,25.38
2017-08-11T17:03:27.108Z,23.82
2017-08-11T17:05:55.427Z,21.10
2017-08-11T17:08:23.746Z,19.64
2017-08-11T17:10:51.324Z,24.78
2017-08-11T17:13:19.677Z,23.20
2017-08-11T17:15:48.012Z,25.06
2017-08-11T17:18:16.330Z,25.86
2017-08-11T17:20:44.672Z,30.54
2017-08-11T17:23:12.994Z,28.76
2017-08-11T17:25:41.336Z,23.42
2017-08-11T17:28:09.744Z,30.54
2017-08-11T17:30:38.079Z,24.02
2017-08-11T17:33:06.407Z,24.02
2017-08-11T17:35:34.752Z,30.68
2017-08-11T17:38:03.080Z,27.54
2017-08-11T17:40:31.395Z,26.62
2017-08-11T17:42:59.832Z,24.60
2017-08-11T17:45:28.171Z,24.80
2017-08-11T17:47:56.587Z,23.62
2017-08-11T17:50:24.915Z,27.06
2017-08-11T17:52:53.343Z,27.12
2017-08-11T17:55:21.661Z,28.78
2017-08-11T17:57:50.003Z,31.06
2017-08-11T18:00:18.316Z,34.74
2017-08-11T18:02:46.756Z,26.34
2017-08-11T18:05:15.078Z,29.32
2017-08-11T18:07:43.417Z,30.04
2017-08-11T18:10:10.981Z,35.72
2017-08-11T18:12:39.319Z,32.04
2017-08-11T18:15:07.664Z,29.92
2017-08-11T18:17:36.079Z,27.00
2017-08-11T18:20:04.428Z,55.08
2017-08-11T18:22:32.770Z,42.22
2017-08-11T18:25:01.162Z,36.04
2017-08-11T18:27:29.493Z,31.26
2017-08-11T18:29:57.856Z,32.80
2017-08-11T18:32:26.300Z,39.22
2017-08-11T18:34:53.905Z,35.66
2017-08-11T18:37:22.294Z,40.74
2017-08-11T18:39:50.661Z,37.12
2017-08-11T18:42:19.039Z,45.68
2017-08-11T18:44:47.371Z,39.80
2017-08-11T18:47:15.790Z,44.30
2017-08-11T18:49:44.148Z,44.74
2017-08-11T18:52:12.483Z,39.74
2017-08-11T18:54:40.051Z,42.22
2017-08-11T18:57:08.435Z,40.72
2017-08-11T18:59:36.835Z,44.24
2017-08-11T19:02:05.284Z,41.86
2017-08-11T19:04:33.645Z,44.04
2017-08-11T19:07:01.996Z,41.82
2017-08-11T19:09:30.383Z,46.26
2017-08-11T19:11:58.804Z,46.06
2017-08-11T19:14:27.196Z,42.20
2017-08-11T19:16:55.611Z,46.52
2017-08-11T19:19:24.027Z,40.62
2017-08-11T19:21:52.470Z,38.94
2017-08-11T19:24:20.811Z,49.10
2017-08-11T19:26:49.135Z,45.14
2017-08-11T19:29:16.742Z,46.60
2017-08-11T19:31:45.076Z,46.20
2017-08-11T19:34:13.496Z,40.72
2017-08-11T19:36:41.816Z,41.18
2017-08-11T19:39:10.152Z,46.20
2017-08-11T19:41:38.472Z,44.72
2017-08-11T19:44:06.927Z,40.84
2017-08-11T19:46:35.262Z,45.52
2017-08-11T19:49:03.618Z,38.90
2017-08-11T19:51:31.994Z,39.52
2017-08-11T19:54:00.320Z,41.36
2017-08-11T19:56:28.740Z,40.48
2017-08-11T19:58:57.136Z,48.18
2017-08-11T20:01:25.529Z,42.48
2017-08-11T20:03:53.915Z,41.52
2017-08-11T20:06:22.251Z,39.24
2017-08-11T20:08:50.640Z,41.76
2017-08-11T20:11:19.053Z,40.78
2017-08-11T20:13:47.411Z,38.70
2017-08-11T20:16:15.806Z,41.52
2017-08-11T20:18:44.187Z,38.16
2017-08-11T20:21:12.527Z,47.40
2017-08-11T20:23:40.868Z,51.66
2017-08-11T20:26:09.194Z,55.84
2017-08-11T20:28:37.598Z,40.02
2017-08-11T20:31:05.919Z,41.08
2017-08-11T20:33:34.259Z,39.14
2017-08-11T20:36:02.571Z,38.80
2017-08-11T20:38:30.936Z,36.72
2017-08-11T20:40:59.268Z,38.72
2017-08-11T20:43:27.640Z,37.70
2017-08-11T20:45:56.514Z,40.52
2017-08-11T20:48:25.941Z,37.80
2017-08-11T20:50:54.279Z,38.16
2017-08-11T20:53:22.592Z,38.88
2017-08-11T20:55:50.926Z,39.46
2017-08-11T20:58:19.249Z,43.36
2017-08-11T21:00:47.615Z,43.58
2017-08-11T21:03:16.005Z,54.46
2017-08-11T21:05:44.343Z,51.92
2017-08-11T21:08:12.660Z,57.64
2017-08-11T21:10:40.995Z,50.98
2017-08-11T21:13:08.591Z,45.56
2017-08-11T21:15:36.999Z,39.14
2017-08-11T21:18:05.320Z,40.96
2017-08-11T21:20:33.631Z,34.84
2017-08-11T21:23:01.964Z,40.88
2017-08-11T21:25:30.283Z,40.74
2017-08-11T21:27:58.617Z,38.42
2017-08-11T21:30:26.936Z,41.86
2017-08-11T21:32:55.278Z,41.74
2017-08-11T21:35:23.591Z,40.36
2017-08-11T21:37:51.936Z,33.70
2017-08-11T21:40:20.261Z,35.96
2017-08-11T21:42:48.609Z,39.52
2017-08-11T21:45:16.927Z,36.08
2017-08-11T21:47:45.244Z,36.72
2017-08-11T21:50:13.584Z,34.26
2017-08-11T21:52:41.909Z,40.48
2017-08-11T21:55:10.252Z,43.44
2017-08-11T21:57:38.567Z,49.46
2017-08-11T22:00:06.902Z,46.30
2017-08-11T22:02:35.214Z,44.52
2017-08-11T22:05:03.559Z,48.56
2017-08-11T22:07:31.871Z,44.84
2017-08-11T22:10:00.202Z,42.48
2017-08-11T22:12:28.510Z,52.82
2017-08-11T22:14:56.893Z,56.16
2017-08-11T22:17:25.208Z,52.62
2017-08-11T22:19:53.587Z,42.86
2017-08-11T22:22:21.924Z,49.06
2017-08-11T22:24:50.236Z,42.10
2017-08-11T22:27:18.566Z,43.46
2017-08-11T22:29:46.924Z,49.04
2017-08-11T22:32:15.263Z,48.32
2017-08-11T22:34:43.659Z,49.48
2017-08-11T22:37:11.995Z,47.16
2017-08-11T22:39:40.306Z,47.92
2017-08-11T22:42:08.663Z,45.42
2017-08-11T22:44:36.983Z,45.80
2017-08-11T22:47:05.301Z,43.64
2017-08-11T22:49:33.640Z,44.28
2017-08-11T22:52:01.956Z,45.70
2017-08-11T22:54:29.527Z,41.74
2017-08-11T22:56:57.852Z,44.38
2017-08-11T22:59:26.245Z,44.70
2017-08-11T23:01:54.564Z,42.30
2017-08-11T23:04:22.999Z,45.84
2017-08-11T23:06:51.307Z,40.92
2017-08-11T23:09:19.626Z,43.48
2017-08-11T23:11:47.975Z,45.22
2017-08-11T23:14:16.291Z,45.42
2017-08-11T23:16:44.634Z,42.46
2017-08-11T23:19:13.045Z,50.64
2017-08-11T23:21:41.386Z,42.00
2017-08-11T23:24:09.701Z,42.08
2017-08-11T23:26:38.060Z,44.90
2017-08-11T23:29:06.377Z,46.96
2017-08-11T23:31:34.691Z,43.78
2017-08-11T23:34:03.036Z,38.64
2017-08-11T23:36:31.392Z,47.98
2017-08-11T23:38:59.731Z,45.02
2017-08-11T23:41:28.051Z,42.30
2017-08-11T23:43:56.440Z,40.10
2017-08-11T23:46:24.750Z,42.34
2017-08-11T23:48:53.101Z,45.36
2017-08-11T23:51:21.424Z,45.56
2017-08-11T23:53:49.784Z,38.42
2017-08-11T23:56:18.116Z,70.78
2017-08-11T23:58:46.436Z,43.42
